CMB826 Details

Departure: Travis Air Force Base (KSUU)
Arrival: Daniel K Inouye International Airport (PHNL) at N/A
Route: BESSA PYE BEBOP R464 BITTA
Notes: USTRANSCOM CONTRACT FLIGHT


Current Weather Information
KSUU 230756Z AUTO 00000KT 10SM CLR 16/07 A3003 RMK AO2 SLP176 T01550070 403140081 $
PHNL 230753Z 06008KT 10SM FEW024 27/19 A3002 RMK AO2 SLP164 T02720194